createdAt,value
2022-12-24T00:02:54.143Z,4.47
2022-12-24T00:06:21.577Z,4.00
2022-12-24T00:09:45.949Z,3.83
2022-12-24T00:13:17.447Z,3.63
2022-12-24T00:16:41.301Z,4.33
2022-12-24T00:20:07.944Z,4.47
2022-12-24T00:23:31.851Z,4.03
2022-12-24T00:26:56.115Z,4.60
2022-12-24T00:30:26.696Z,3.73
2022-12-24T00:33:51.008Z,3.50
2022-12-24T00:37:25.220Z,4.17
2022-12-24T00:40:54.466Z,3.57
2022-12-24T00:44:18.243Z,3.13
2022-12-24T00:47:43.741Z,3.57
2022-12-24T00:51:08.823Z,4.53
2022-12-24T00:54:33.035Z,2.77
2022-12-24T00:57:56.985Z,3.43
2022-12-24T01:01:23.188Z,3.50
2022-12-24T01:05:11.214Z,3.63
2022-12-24T01:08:37.279Z,3.20
2022-12-24T01:12:00.915Z,3.57
2022-12-24T01:15:24.969Z,3.50
2022-12-24T01:18:48.967Z,3.20
2022-12-24T01:22:14.507Z,6.07
2022-12-24T01:25:46.687Z,3.87
2022-12-24T01:29:11.007Z,3.10
2022-12-24T01:32:35.500Z,3.70
2022-12-24T01:36:03.939Z,4.53
2022-12-24T01:39:28.900Z,4.17
2022-12-24T01:43:11.879Z,4.00
2022-12-24T01:46:36.296Z,3.03
2022-12-24T01:50:03.114Z,4.97
2022-12-24T01:53:27.201Z,4.20
2022-12-24T01:56:56.947Z,4.47
2022-12-24T02:00:24.301Z,5.43
2022-12-24T02:03:50.342Z,5.23
2022-12-24T02:07:15.041Z,4.77
2022-12-24T02:10:39.010Z,5.60
2022-12-24T02:14:07.073Z,5.30
2022-12-24T02:17:40.582Z,5.83
2022-12-24T02:21:43.381Z,7.57
2022-12-24T02:25:53.289Z,6.70
2022-12-24T02:29:39.110Z,6.73
2022-12-24T02:33:19.395Z,6.20
2022-12-24T02:36:48.014Z,6.90
2022-12-24T02:40:16.712Z,8.10
2022-12-24T02:43:45.214Z,6.50
2022-12-24T02:47:10.963Z,7.97
2022-12-24T02:50:37.155Z,7.00
2022-12-24T02:54:01.066Z,6.80
2022-12-24T02:57:36.274Z,8.40
2022-12-24T03:01:17.685Z,7.67
2022-12-24T03:04:49.324Z,7.63
2022-12-24T03:08:22.820Z,6.87
2022-12-24T03:11:55.009Z,7.50
2022-12-24T03:15:21.856Z,7.70
2022-12-24T03:18:48.028Z,7.10
2022-12-24T03:22:13.298Z,8.37
2022-12-24T03:25:43.515Z,7.57
2022-12-24T03:29:09.109Z,6.80
2022-12-24T03:32:33.955Z,7.80
2022-12-24T03:35:58.231Z,6.30
2022-12-24T03:39:22.604Z,7.20
2022-12-24T03:42:48.578Z,9.47
2022-12-24T03:46:13.151Z,7.03
2022-12-24T03:49:37.303Z,6.17
2022-12-24T03:53:01.285Z,8.23
2022-12-24T03:56:27.807Z,7.63
2022-12-24T03:59:53.572Z,7.10
2022-12-24T04:03:18.566Z,8.17
2022-12-24T04:06:44.222Z,7.97
2022-12-24T04:10:09.793Z,8.13
2022-12-24T04:13:34.277Z,8.00
2022-12-24T04:16:59.642Z,7.17
2022-12-24T04:20:23.463Z,6.30
2022-12-24T04:23:47.868Z,7.77
2022-12-24T04:27:12.786Z,6.93
2022-12-24T04:30:38.944Z,8.93
2022-12-24T04:34:03.984Z,8.63
2022-12-24T04:37:28.363Z,6.63
2022-12-24T04:40:59.515Z,7.70
2022-12-24T04:44:23.227Z,6.80
2022-12-24T04:47:47.230Z,8.30
2022-12-24T04:51:13.892Z,9.00
2022-12-24T04:54:39.930Z,6.27
2022-12-24T04:58:03.579Z,6.37
2022-12-24T05:01:31.037Z,6.80
2022-12-24T05:04:55.308Z,7.33
2022-12-24T05:08:20.580Z,7.23
2022-12-24T05:11:46.593Z,7.80
2022-12-24T05:15:12.996Z,6.10
2022-12-24T05:18:36.714Z,6.60
2022-12-24T05:22:19.450Z,7.30
2022-12-24T05:26:02.456Z,9.27
2022-12-24T05:29:26.343Z,6.67
2022-12-24T05:32:50.415Z,8.00
2022-12-24T05:36:14.453Z,8.00
2022-12-24T05:39:38.320Z,8.10
2022-12-24T05:43:03.632Z,9.17
2022-12-24T05:46:27.464Z,8.23
2022-12-24T05:49:51.219Z,7.67
2022-12-24T05:53:15.281Z,7.20
2022-12-24T05:56:38.992Z,7.20
2022-12-24T06:00:05.563Z,8.07
2022-12-24T06:03:50.118Z,8.10
2022-12-24T06:07:14.314Z,8.67
2022-12-24T06:10:38.047Z,9.23
2022-12-24T06:14:04.516Z,7.93
2022-12-24T06:17:29.486Z,8.47
2022-12-24T06:20:54.034Z,6.50
2022-12-24T06:24:18.293Z,8.37
2022-12-24T06:27:42.345Z,6.50
2022-12-24T06:31:11.860Z,8.97
2022-12-24T06:34:40.109Z,7.37
2022-12-24T06:38:03.794Z,9.50
2022-12-24T06:41:28.363Z,8.63
2022-12-24T06:44:52.314Z,9.03
2022-12-24T06:48:19.757Z,10.50
2022-12-24T06:51:44.683Z,7.83
2022-12-24T06:55:09.324Z,8.87
2022-12-24T06:58:34.142Z,8.17
2022-12-24T07:02:00.631Z,9.80
2022-12-24T07:05:25.553Z,10.50
2022-12-24T07:08:50.869Z,9.87
2022-12-24T07:12:15.359Z,9.30
2022-12-24T07:15:39.555Z,9.13
2022-12-24T07:19:03.495Z,9.53
2022-12-24T07:22:28.300Z,9.30
2022-12-24T07:26:00.958Z,8.63
2022-12-24T07:29:25.328Z,9.37
2022-12-24T07:32:49.427Z,10.47
2022-12-24T07:36:20.048Z,9.20
2022-12-24T07:39:46.803Z,10.80
2022-12-24T07:43:17.016Z,8.93
2022-12-24T07:46:44.838Z,9.63
2022-12-24T07:50:13.382Z,7.87
2022-12-24T07:53:39.819Z,10.33
2022-12-24T07:57:04.510Z,10.30
2022-12-24T08:00:29.863Z,15.00
2022-12-24T08:03:55.724Z,9.07
2022-12-24T08:07:19.457Z,12.37
2022-12-24T08:10:45.401Z,12.13
2022-12-24T08:14:11.984Z,10.23
2022-12-24T08:17:37.004Z,13.63
2022-12-24T08:21:01.526Z,11.47
2022-12-24T08:24:25.573Z,9.40
2022-12-24T08:27:49.534Z,8.57
2022-12-24T08:31:16.287Z,7.63
2022-12-24T08:34:41.373Z,11.60
2022-12-24T08:38:05.541Z,12.03
2022-12-24T08:41:29.188Z,11.50
2022-12-24T08:44:53.500Z,10.20
2022-12-24T08:48:17.509Z,10.17
2022-12-24T08:51:42.723Z,12.97
2022-12-24T08:55:07.534Z,11.00
2022-12-24T08:58:31.533Z,11.50
2022-12-24T09:01:58.356Z,10.13
2022-12-24T09:05:22.745Z,11.27
2022-12-24T09:08:49.289Z,7.93
2022-12-24T09:12:16.217Z,7.50
2022-12-24T09:15:40.586Z,8.37
2022-12-24T09:19:04.509Z,6.83
2022-12-24T09:22:28.484Z,8.07
2022-12-24T09:25:54.274Z,9.53
2022-12-24T09:29:17.796Z,9.63
2022-12-24T09:32:41.312Z,10.90
2022-12-24T09:36:06.086Z,11.87
2022-12-24T09:39:29.692Z,9.00
2022-12-24T09:42:55.815Z,10.10
2022-12-24T09:46:26.951Z,11.30
2022-12-24T09:49:55.274Z,10.97
2022-12-24T09:53:24.864Z,10.80
2022-12-24T09:56:49.953Z,10.23
2022-12-24T10:00:22.210Z,11.47
2022-12-24T10:03:46.816Z,10.67
2022-12-24T10:07:25.365Z,10.73
2022-12-24T10:10:53.783Z,10.97
2022-12-24T10:14:31.422Z,11.27
2022-12-24T10:18:09.459Z,10.03
2022-12-24T10:21:42.809Z,9.87
2022-12-24T10:25:24.193Z,9.97
2022-12-24T10:28:52.660Z,9.60
2022-12-24T10:32:22.205Z,10.47
2022-12-24T10:35:51.142Z,9.27
2022-12-24T10:39:19.587Z,8.10
2022-12-24T10:42:50.714Z,7.57
2022-12-24T10:46:20.136Z,8.43
2022-12-24T10:49:48.149Z,7.30
2022-12-24T10:53:21.192Z,8.40
2022-12-24T10:56:47.871Z,8.63
2022-12-24T11:00:21.506Z,8.63
2022-12-24T11:03:45.176Z,7.20
2022-12-24T11:07:20.395Z,7.60
2022-12-24T11:10:55.543Z,7.93
2022-12-24T11:14:22.123Z,6.60
2022-12-24T11:17:54.899Z,6.70
2022-12-24T11:21:24.430Z,7.23
2022-12-24T11:24:59.459Z,6.23
2022-12-24T11:28:26.517Z,7.10
2022-12-24T11:31:52.599Z,6.60
2022-12-24T11:35:18.218Z,6.60
2022-12-24T11:38:41.894Z,7.40
2022-12-24T11:42:05.653Z,7.00
2022-12-24T11:45:33.243Z,6.27
2022-12-24T11:49:24.038Z,6.90
2022-12-24T11:52:50.740Z,7.43
2022-12-24T11:56:22.138Z,8.00
2022-12-24T11:59:48.302Z,8.50
2022-12-24T12:03:27.600Z,7.30
2022-12-24T12:06:55.286Z,7.57
2022-12-24T12:10:25.124Z,9.60
2022-12-24T12:13:51.358Z,7.10
2022-12-24T12:17:23.216Z,8.43
2022-12-24T12:20:52.995Z,8.80
2022-12-24T12:24:31.641Z,7.47
2022-12-24T12:27:58.844Z,7.73
2022-12-24T12:31:26.397Z,7.20
2022-12-24T12:35:00.469Z,9.13
2022-12-24T12:38:29.029Z,8.27
2022-12-24T12:42:00.129Z,7.80
2022-12-24T12:45:40.411Z,6.80
2022-12-24T12:49:22.363Z,8.90
2022-12-24T12:52:58.703Z,8.00
2022-12-24T12:56:31.245Z,9.80
2022-12-24T12:59:57.696Z,7.47
2022-12-24T13:03:58.925Z,7.00
2022-12-24T13:07:52.211Z,8.20
2022-12-24T13:11:41.636Z,8.40
2022-12-24T13:15:27.801Z,7.03
2022-12-24T13:19:05.576Z,8.40
2022-12-24T13:22:29.555Z,7.07
2022-12-24T13:25:55.262Z,7.90
2022-12-24T13:29:40.609Z,7.20
2022-12-24T13:33:04.919Z,8.00
2022-12-24T13:37:02.371Z,8.20
2022-12-24T13:40:26.796Z,7.23
2022-12-24T13:44:15.266Z,6.80
2022-12-24T13:47:43.258Z,7.10
2022-12-24T13:51:20.959Z,6.00
2022-12-24T13:54:49.071Z,6.40
2022-12-24T13:58:20.935Z,7.37
2022-12-24T14:01:46.169Z,6.97
2022-12-24T14:05:21.870Z,7.07
2022-12-24T14:08:47.288Z,7.87
2022-12-24T14:12:35.250Z,6.93
2022-12-24T14:16:04.469Z,6.53
2022-12-24T14:19:37.261Z,7.23
2022-12-24T14:23:04.929Z,6.57
2022-12-24T14:26:31.893Z,7.53
2022-12-24T14:30:02.537Z,6.80
2022-12-24T14:33:33.383Z,7.13
2022-12-24T14:36:58.486Z,8.10
2022-12-24T14:40:28.341Z,8.47
2022-12-24T14:43:59.802Z,7.43
2022-12-24T14:47:31.390Z,7.50
2022-12-24T14:51:08.487Z,7.60
2022-12-24T14:54:36.369Z,7.80
2022-12-24T14:58:25.107Z,8.13
2022-12-24T15:01:48.839Z,9.03
2022-12-24T15:05:15.821Z,9.07
2022-12-24T15:08:42.198Z,8.60
2022-12-24T15:12:06.638Z,9.20
2022-12-24T15:15:32.317Z,9.30
2022-12-24T15:18:59.766Z,10.17
2022-12-24T15:22:26.880Z,10.33
2022-12-24T15:25:50.534Z,9.87
2022-12-24T15:29:23.081Z,9.93
2022-12-24T15:32:58.858Z,8.17
2022-12-24T15:36:29.350Z,8.87
2022-12-24T15:39:57.773Z,8.10
2022-12-24T15:43:21.918Z,9.43
2022-12-24T15:46:45.616Z,8.67
2022-12-24T15:50:17.572Z,7.93
2022-12-24T15:53:45.290Z,9.17
2022-12-24T15:57:21.814Z,8.73
2022-12-24T16:01:00.643Z,12.57
2022-12-24T16:04:26.411Z,10.23
2022-12-24T16:08:08.689Z,10.13
2022-12-24T16:11:37.819Z,9.83
2022-12-24T16:15:01.896Z,9.37
2022-12-24T16:18:30.010Z,13.27
2022-12-24T16:21:56.367Z,9.77
2022-12-24T16:25:27.816Z,10.27
2022-12-24T16:28:51.603Z,10.57
2022-12-24T16:32:28.874Z,11.67
2022-12-24T16:35:52.517Z,21.43
2022-12-24T16:39:26.744Z,16.60
2022-12-24T16:43:09.218Z,21.97
2022-12-24T16:46:33.021Z,13.00
2022-12-24T16:49:58.099Z,11.83
2022-12-24T16:53:23.647Z,9.73
2022-12-24T16:56:47.250Z,11.20
2022-12-24T17:00:16.803Z,10.13
2022-12-24T17:03:40.670Z,12.07
2022-12-24T17:07:04.338Z,15.23
2022-12-24T17:10:28.736Z,10.87
2022-12-24T17:13:52.335Z,9.50
2022-12-24T17:17:24.777Z,13.10
2022-12-24T17:20:59.473Z,12.10
2022-12-24T17:24:23.047Z,11.50
2022-12-24T17:27:46.619Z,18.53
2022-12-24T17:31:11.408Z,14.60
2022-12-24T17:34:36.463Z,25.00
2022-12-24T17:38:00.103Z,57.20
2022-12-24T17:41:23.937Z,37.87
2022-12-24T17:44:47.489Z,21.60
2022-12-24T17:48:11.100Z,23.40
2022-12-24T17:51:40.227Z,20.23
2022-12-24T17:55:09.837Z,21.70
2022-12-24T17:58:33.808Z,15.20
2022-12-24T18:01:57.488Z,13.33
2022-12-24T18:05:21.202Z,25.93
2022-12-24T18:08:47.958Z,20.90
2022-12-24T18:12:11.794Z,18.90
2022-12-24T18:15:36.287Z,16.43
2022-12-24T18:19:00.772Z,13.20
2022-12-24T18:22:24.360Z,12.70
2022-12-24T18:25:49.256Z,10.37
2022-12-24T18:29:13.119Z,10.83
2022-12-24T18:32:37.576Z,11.00
2022-12-24T18:36:01.220Z,11.57
2022-12-24T18:39:24.799Z,13.70
2022-12-24T18:42:49.783Z,13.17
2022-12-24T18:46:17.845Z,12.07
2022-12-24T18:49:41.563Z,12.37
2022-12-24T18:53:05.910Z,14.20
2022-12-24T18:56:29.784Z,12.70
2022-12-24T18:59:55.861Z,10.93
2022-12-24T19:03:19.648Z,12.87
2022-12-24T19:06:50.751Z,13.40
2022-12-24T19:10:16.420Z,13.40
2022-12-24T19:13:40.043Z,12.33
2022-12-24T19:17:05.008Z,16.33
2022-12-24T19:20:28.794Z,13.70
2022-12-24T19:23:52.563Z,18.00
2022-12-24T19:27:16.114Z,15.50
2022-12-24T19:30:41.949Z,13.63
2022-12-24T19:34:07.069Z,15.03
2022-12-24T19:37:31.121Z,16.53
2022-12-24T19:40:54.653Z,16.23
2022-12-24T19:44:18.256Z,13.90
2022-12-24T19:47:41.802Z,13.37
2022-12-24T19:51:09.764Z,35.23
2022-12-24T19:54:33.340Z,17.00
2022-12-24T19:57:56.904Z,31.37
2022-12-24T20:01:22.468Z,47.07
2022-12-24T20:04:46.310Z,15.53
2022-12-24T20:08:11.730Z,17.47
2022-12-24T20:11:36.226Z,13.87
2022-12-24T20:14:59.782Z,15.83
2022-12-24T20:18:23.507Z,38.40
2022-12-24T20:21:47.194Z,15.37
2022-12-24T20:25:12.263Z,17.00
2022-12-24T20:28:37.413Z,51.43
2022-12-24T20:32:01.065Z,23.80
2022-12-24T20:35:25.010Z,31.23
2022-12-24T20:38:49.478Z,72.13
2022-12-24T20:42:14.403Z,29.60
2022-12-24T20:45:38.072Z,29.57
2022-12-24T20:49:01.623Z,12.33
2022-12-24T20:52:25.225Z,14.77
2022-12-24T20:55:51.180Z,12.60
2022-12-24T20:59:16.180Z,12.47
2022-12-24T21:02:39.958Z,17.00
2022-12-24T21:06:04.005Z,20.90
2022-12-24T21:09:27.464Z,35.10
2022-12-24T21:12:56.654Z,15.43
2022-12-24T21:16:21.828Z,24.43
2022-12-24T21:19:45.418Z,23.07
2022-12-24T21:23:09.022Z,13.60
2022-12-24T21:26:33.205Z,11.37
2022-12-24T21:29:57.006Z,10.20
2022-12-24T21:33:22.398Z,10.80
2022-12-24T21:36:47.096Z,10.07
2022-12-24T21:40:12.201Z,10.67
2022-12-24T21:43:36.748Z,11.27
2022-12-24T21:47:00.317Z,11.43
2022-12-24T21:50:42.839Z,13.83
2022-12-24T21:54:27.060Z,20.60
2022-12-24T21:57:53.368Z,12.43
2022-12-24T22:01:17.555Z,10.30
2022-12-24T22:04:41.814Z,10.43
2022-12-24T22:08:24.169Z,10.10
2022-12-24T22:11:54.640Z,10.20
2022-12-24T22:15:18.757Z,9.60
2022-12-24T22:18:42.343Z,9.83
2022-12-24T22:22:05.907Z,9.60
2022-12-24T22:25:31.465Z,11.43
2022-12-24T22:28:55.191Z,8.73
2022-12-24T22:32:18.776Z,8.47
2022-12-24T22:35:42.754Z,9.30
2022-12-24T22:39:06.229Z,9.43
2022-12-24T22:42:32.676Z,11.77
2022-12-24T22:45:56.227Z,9.10
2022-12-24T22:49:19.785Z,8.30
2022-12-24T22:52:43.346Z,7.07
2022-12-24T22:56:08.129Z,10.30
2022-12-24T22:59:33.036Z,9.17
2022-12-24T23:02:56.783Z,7.63
2022-12-24T23:06:20.528Z,9.53
2022-12-24T23:09:44.077Z,11.00
2022-12-24T23:13:25.337Z,11.77
2022-12-24T23:16:50.928Z,9.13
2022-12-24T23:20:14.460Z,9.60
2022-12-24T23:23:38.055Z,10.33
2022-12-24T23:27:02.761Z,8.43
2022-12-24T23:30:26.344Z,9.23
2022-12-24T23:33:51.547Z,9.53
2022-12-24T23:37:23.059Z,7.60
2022-12-24T23:40:51.586Z,9.10
2022-12-24T23:44:15.466Z,5.80
2022-12-24T23:47:39.480Z,8.10
2022-12-24T23:51:09.684Z,8.00
2022-12-24T23:54:33.497Z,7.27
2022-12-24T23:57:57.492Z,7.50
